Time;durP1;ratioP1;P1;durP2;ratioP2;P2;SDS_P1;SDS_P2;PMS_P1;PMS_P2;Temp;Humidity;BMP_temperature;BMP_pressure;BME280_temperature;BME280_humidity;BME280_pressure;Samples;Min_cycle;Max_cycle;Signal;HPM_P1;HPM_P2
2023/08/27 00:00:43;;;;;;;19.95;12.75;;;614.70;2432.00;;;;;;5068958;28;20497;-67
2023/08/27 00:03:09;;;;;;;13.98;10.82;;;614.70;2432.00;;;;;;5069431;28;20029;-67
2023/08/27 00:05:44;;;;;;;13.65;12.30;;;614.70;2432.00;;;;;;5069053;28;20040;-63
2023/08/27 00:08:10;;;;;;;14.30;11.52;;;614.70;2432.00;;;;;;5068860;28;20012;-66
2023/08/27 00:10:36;;;;;;;13.20;11.10;;;614.60;2432.00;;;;;;5068806;28;20028;-61
2023/08/27 00:13:02;;;;;;;17.35;12.80;;;614.50;2432.00;;;;;;5069001;28;20110;-63
2023/08/27 00:15:27;;;;;;;14.90;12.65;;;614.40;2432.00;;;;;;5069184;28;20021;-66
2023/08/27 00:17:53;;;;;;;15.43;11.80;;;589.70;2432.00;;;;;;5068895;28;20033;-62
2023/08/27 00:20:19;;;;;;;15.05;12.57;;;589.60;2432.00;;;;;;5069080;28;20050;-66
2023/08/27 00:22:44;;;;;;;16.67;12.50;;;589.60;2432.00;;;;;;5068699;28;20021;-66
2023/08/27 00:25:10;;;;;;;15.43;13.07;;;589.60;2432.00;;;;;;5069048;28;20077;-64
2023/08/27 00:27:36;;;;;;;16.40;13.57;;;589.60;2432.00;;;;;;5068619;28;20086;-66
2023/08/27 00:30:04;;;;;;;13.48;12.07;;;589.50;2432.00;;;;;;5069444;28;20221;-65
2023/08/27 00:32:33;;;;;;;16.33;11.82;;;589.60;2432.00;;;;;;5069323;28;20466;-64
2023/08/27 00:34:59;;;;;;;15.30;11.52;;;589.60;2432.00;;;;;;5069414;28;20025;-68
2023/08/27 00:37:25;;;;;;;15.05;12.95;;;589.50;2432.00;;;;;;5068767;28;20028;-67
2023/08/27 00:39:52;;;;;;;14.13;12.23;;;589.50;2432.00;;;;;;5069319;28;20028;-61
2023/08/27 00:42:17;;;;;;;14.80;12.85;;;589.40;2432.00;;;;;;5068742;28;20024;-67
2023/08/27 00:44:43;;;;;;;13.52;11.25;;;589.40;2432.00;;;;;;5068567;28;20467;-67
2023/08/27 00:47:11;;;;;;;16.92;11.85;;;589.40;2432.00;;;;;;5068738;28;20032;-67
2023/08/27 00:49:38;;;;;;;13.70;10.35;;;589.30;2432.00;;;;;;5068787;28;20082;-64
2023/08/27 00:52:05;;;;;;;17.08;11.23;;;589.30;2432.00;;;;;;5068586;28;20017;-66
2023/08/27 00:54:33;;;;;;;13.30;11.02;;;589.30;2432.00;;;;;;5068823;28;20670;-64
2023/08/27 00:56:59;;;;;;;13.30;11.93;;;589.30;2432.00;;;;;;5068983;28;20021;-64
2023/08/27 00:59:25;;;;;;;14.50;11.10;;;589.20;2432.00;;;;;;5068650;28;20021;-65
2023/08/27 01:01:51;;;;;;;18.70;11.48;;;589.20;2432.00;;;;;;5068594;28;20039;-67
2023/08/27 01:04:17;;;;;;;16.35;10.10;;;589.30;2432.00;;;;;;5068728;28;20103;-67
2023/08/27 01:06:43;;;;;;;16.88;12.07;;;589.10;2432.00;;;;;;5068363;28;20115;-67
2023/08/27 01:09:15;;;;;;;12.60;10.85;;;589.20;2432.00;;;;;;5068606;28;20761;-67
2023/08/27 01:11:46;;;;;;;13.23;11.30;;;589.20;2432.00;;;;;;5068485;28;20127;-66
2023/08/27 01:14:16;;;;;;;12.80;10.50;;;589.20;2432.00;;;;;;5068436;28;20032;-65
2023/08/27 01:16:43;;;;;;;12.05;9.68;;;589.30;2432.00;;;;;;5068407;28;20029;-67
2023/08/27 01:19:14;;;;;;;16.30;11.27;;;589.30;2432.00;;;;;;5068513;28;20105;-67
2023/08/27 01:21:40;;;;;;;12.55;11.18;;;589.20;2432.00;;;;;;5068291;28;20044;-65
2023/08/27 01:24:06;;;;;;;13.85;11.45;;;589.20;2432.00;;;;;;5068262;28;20035;-67
2023/08/27 01:26:50;;;;;;;14.07;9.70;;;589.10;2432.00;;;;;;5067962;28;20025;-64
2023/08/27 01:29:39;;;;;;;16.17;10.57;;;589.10;2432.00;;;;;;5071048;28;20031;-67
2023/08/27 01:32:20;;;;;;;11.27;9.43;;;588.90;2432.00;;;;;;5071510;28;20474;-67
2023/08/27 01:34:47;;;;;;;14.45;10.55;;;588.90;2432.00;;;;;;5058995;28;20375;-67
2023/08/27 01:37:13;;;;;;;12.15;9.93;;;588.90;2432.00;;;;;;5071745;28;20064;-63
2023/08/27 01:39:42;;;;;;;16.35;11.23;;;588.90;2432.00;;;;;;5072394;28;20030;-62
2023/08/27 01:42:08;;;;;;;14.43;10.32;;;564.10;2432.00;;;;;;5071647;28;20023;-64
2023/08/27 01:44:34;;;;;;;16.17;11.63;;;564.10;2432.00;;;;;;5071880;28;20025;-64
2023/08/27 01:47:00;;;;;;;14.32;11.65;;;588.80;2432.00;;;;;;5071733;28;20051;-65
2023/08/27 01:49:26;;;;;;;12.63;11.32;;;564.00;2432.00;;;;;;5071858;28;20016;-64
2023/08/27 01:51:51;;;;;;;15.57;11.45;;;564.10;2432.00;;;;;;5071784;28;20024;-64
2023/08/27 01:54:18;;;;;;;17.00;12.40;;;564.00;2432.00;;;;;;5071649;28;20016;-63
2023/08/27 01:56:44;;;;;;;13.18;11.85;;;564.10;2432.00;;;;;;5071406;28;20042;-64
2023/08/27 01:59:09;;;;;;;13.23;10.57;;;564.00;2432.00;;;;;;5071959;28;20028;-65
2023/08/27 02:01:35;;;;;;;14.93;10.93;;;563.90;2432.00;;;;;;5071077;28;20033;-65
2023/08/27 02:04:01;;;;;;;13.25;11.73;;;563.90;2432.00;;;;;;5071805;28;20110;-64
2023/08/27 02:06:26;;;;;;;11.70;10.60;;;563.80;2432.00;;;;;;5071192;28;20131;-65
2023/08/27 02:08:52;;;;;;;12.40;11.10;;;563.90;2432.00;;;;;;5071516;28;20149;-64
2023/08/27 02:11:18;;;;;;;13.18;10.88;;;563.80;2432.00;;;;;;5071120;28;20051;-63
2023/08/27 02:13:43;;;;;;;12.05;10.75;;;563.80;2432.00;;;;;;5071564;28;20056;-65
2023/08/27 02:16:09;;;;;;;15.60;11.63;;;563.70;2432.00;;;;;;5071187;28;20028;-65
2023/08/27 02:18:34;;;;;;;14.07;10.80;;;563.70;2432.00;;;;;;5071207;28;20047;-64
2023/08/27 02:21:01;;;;;;;12.35;10.35;;;563.80;2432.00;;;;;;5071256;28;20441;-64
2023/08/27 02:23:27;;;;;;;11.85;10.63;;;563.80;2432.00;;;;;;5071180;28;20096;-64
2023/08/27 02:25:53;;;;;;;17.88;11.63;;;;;;;;;;5070739;28;20462;-65
2023/08/27 02:28:19;;;;;;;17.27;10.88;;;563.80;2432.00;;;;;;5071101;28;20020;-64
2023/08/27 02:30:53;;;;;;;14.15;10.57;;;563.70;2432.00;;;;;;5069533;28;20432;-65
2023/08/27 02:33:18;;;;;;;11.00;9.82;;;563.60;2432.00;;;;;;5060370;28;20416;-64
2023/08/27 02:35:44;;;;;;;16.05;10.65;;;563.60;2432.00;;;;;;5070870;28;20024;-64
2023/08/27 02:38:10;;;;;;;13.38;10.60;;;563.60;2432.00;;;;;;5071186;28;20027;-64
2023/08/27 02:40:35;;;;;;;12.38;11.13;;;563.60;2432.00;;;;;;5070147;28;20115;-64
2023/08/27 02:43:03;;;;;;;12.90;10.50;;;563.60;2432.00;;;;;;5070625;28;20095;-64
2023/08/27 02:45:29;;;;;;;13.43;10.77;;;563.60;2432.00;;;;;;5070561;28;20074;-65
2023/08/27 02:47:54;;;;;;;14.90;10.27;;;563.50;2432.00;;;;;;5070645;28;20032;-64
2023/08/27 02:50:20;;;;;;;17.27;11.63;;;563.60;2432.00;;;;;;5071022;28;20074;-64
2023/08/27 02:52:46;;;;;;;14.98;10.05;;;563.60;2432.00;;;;;;5070510;28;20024;-64
2023/08/27 02:55:11;;;;;;;14.27;10.57;;;563.50;2432.00;;;;;;5070566;28;20021;-63
2023/08/27 02:57:37;;;;;;;19.63;11.32;;;563.60;2432.00;;;;;;5070915;28;20024;-63
2023/08/27 03:00:04;;;;;;;14.57;10.85;;;563.50;2432.00;;;;;;5070235;28;20489;-62
2023/08/27 03:02:29;;;;;;;13.85;10.32;;;563.40;2432.00;;;;;;5070357;28;20059;-63
2023/08/27 03:04:57;;;;;;;14.18;10.00;;;563.40;2432.00;;;;;;5072551;28;20028;-64
2023/08/27 03:07:23;;;;;;;14.60;11.02;;;563.50;2432.00;;;;;;5081371;28;20064;-64
2023/08/27 03:09:48;;;;;;;14.88;11.68;;;563.60;2432.00;;;;;;5070249;28;20025;-63
2023/08/27 03:12:14;;;;;;;12.45;9.75;;;563.60;2432.00;;;;;;5069912;28;20055;-61
2023/08/27 03:14:40;;;;;;;12.48;10.60;;;563.50;2432.00;;;;;;5070274;28;20499;-62
2023/08/27 03:17:06;;;;;;;11.95;10.18;;;563.50;2432.00;;;;;;5069847;28;20470;-61
2023/08/27 03:19:32;;;;;;;12.18;10.18;;;563.50;2432.00;;;;;;5069729;28;20078;-61
2023/08/27 03:22:00;;;;;;;12.23;10.20;;;563.60;2432.00;;;;;;5070066;28;20729;-61
2023/08/27 03:24:25;;;;;;;12.98;10.40;;;563.60;2432.00;;;;;;5069932;28;20040;-64
2023/08/27 03:26:51;;;;;;;13.88;10.25;;;563.60;2432.00;;;;;;5070083;28;20024;-63
2023/08/27 03:29:17;;;;;;;16.23;10.13;;;563.50;2432.00;;;;;;5069854;28;20429;-63
2023/08/27 03:31:43;;;;;;;11.52;9.45;;;563.40;2432.00;;;;;;5069590;28;20532;-65
2023/08/27 03:34:09;;;;;;;19.63;10.88;;;563.30;2432.00;;;;;;5069830;28;20099;-65
2023/08/27 03:36:34;;;;;;;12.48;11.18;;;538.50;2406.40;;;;;;5069708;28;20493;-65
2023/08/27 03:39:01;;;;;;;16.17;10.27;;;538.50;2406.40;;;;;;5069805;28;20031;-63
2023/08/27 03:41:26;;;;;;;14.20;10.40;;;538.30;2406.40;;;;;;5069634;28;20115;-65
2023/08/27 03:43:52;;;;;;;18.50;11.68;;;538.20;2406.40;;;;;;5069324;28;20104;-64
2023/08/27 03:46:18;;;;;;;17.02;10.32;;;538.10;2406.40;;;;;;5069753;28;20028;-62
2023/08/27 03:48:44;;;;;;;18.08;11.13;;;538.20;2406.40;;;;;;5069261;28;20078;-63
2023/08/27 03:51:09;;;;;;;15.82;11.65;;;538.30;2406.40;;;;;;5069105;28;20533;-66
2023/08/27 03:53:36;;;;;;;15.40;10.48;;;538.20;2406.40;;;;;;5069299;28;20100;-62
2023/08/27 03:56:04;;;;;;;12.85;10.73;;;538.20;2406.40;;;;;;5069750;28;20035;-63
2023/08/27 03:58:31;;;;;;;15.80;10.00;;;538.40;2406.40;;;;;;5069433;28;20116;-63
2023/08/27 04:00:57;;;;;;;12.18;10.27;;;538.40;2406.40;;;;;;5069237;28;20110;-63
2023/08/27 04:03:22;;;;;;;17.02;10.77;;;538.30;2406.40;;;;;;5069063;28;20028;-64
2023/08/27 04:05:49;;;;;;;13.35;9.93;;;538.40;2406.40;;;;;;5069421;28;20032;-65
2023/08/27 04:08:16;;;;;;;16.25;10.73;;;538.30;2406.40;;;;;;5069133;28;20119;-63
2023/08/27 04:10:49;;;;;;;15.65;9.98;;;538.40;2406.40;;;;;;5069337;28;20032;-63
2023/08/27 04:13:15;;;;;;;;;;;538.50;2406.40;;;;;;5069335;28;20127;-62
2023/08/27 04:15:41;;;;;;;14.07;10.43;;;538.50;2406.40;;;;;;5069009;28;19912;-64
2023/08/27 04:18:06;;;;;;;15.65;10.32;;;563.20;2432.00;;;;;;5068581;28;20017;-64
2023/08/27 04:20:32;;;;;;;19.65;11.32;;;563.20;2432.00;;;;;;5069292;28;20039;-63
2023/08/27 04:22:58;;;;;;;21.90;10.60;;;563.30;2432.00;;;;;;5069211;28;20463;-62
2023/08/27 04:25:23;;;;;;;18.05;10.45;;;563.30;2432.00;;;;;;5069073;28;20031;-64
2023/08/27 04:27:49;;;;;;;13.93;10.70;;;563.50;2432.00;;;;;;5068862;28;20387;-65
2023/08/27 04:30:15;;;;;;;15.15;9.93;;;563.60;2432.00;;;;;;5069079;28;20031;-62
2023/08/27 04:32:40;;;;;;;14.68;10.35;;;563.80;2432.00;;;;;;5068982;28;20032;-66
2023/08/27 04:35:07;;;;;;;19.85;10.98;;;564.10;2432.00;;;;;;5068927;28;20386;-62
2023/08/27 04:37:33;;;;;;;16.48;10.30;;;563.90;2432.00;;;;;;5069123;28;20417;-62
2023/08/27 04:39:59;;;;;;;22.52;10.90;;;563.90;2432.00;;;;;;5069358;28;20024;-65
2023/08/27 04:42:24;;;;;;;15.25;9.40;;;563.90;2432.00;;;;;;5068507;28;20075;-63
2023/08/27 04:44:50;;;;;;;14.05;9.27;;;564.10;2432.00;;;;;;5069293;28;20036;-64
2023/08/27 04:47:16;;;;;;;15.60;9.73;;;564.10;2432.00;;;;;;5068702;28;20426;-65
2023/08/27 04:49:42;;;;;;;15.77;10.07;;;564.10;2432.00;;;;;;5068892;28;20024;-66
2023/08/27 04:52:08;;;;;;;13.90;9.70;;;589.00;2432.00;;;;;;5069038;28;20021;-63
2023/08/27 04:54:33;;;;;;;16.35;9.32;;;589.30;2432.00;;;;;;5068832;28;20494;-64
2023/08/27 04:56:59;;;;;;;16.30;9.45;;;589.50;2432.00;;;;;;5072052;28;20470;-64
2023/08/27 04:59:25;;;;;;;17.70;9.40;;;589.70;2432.00;;;;;;5079145;28;20020;-63
2023/08/27 05:01:51;;;;;;;19.08;8.90;;;614.60;2432.00;;;;;;5068880;28;20028;-63
2023/08/27 05:04:17;;;;;;;15.40;9.82;;;615.00;2432.00;;;;;;5071544;28;20020;-66
2023/08/27 05:06:43;;;;;;;13.70;8.73;;;640.20;2432.00;;;;;;5072259;28;20029;-63
2023/08/27 05:09:08;;;;;;;12.48;9.50;;;640.90;2432.00;;;;;;5072877;28;20031;-64
2023/08/27 05:11:34;;;;;;;20.95;9.32;;;666.30;2432.00;;;;;;5071899;28;20052;-66
2023/08/27 05:14:00;;;;;;;19.42;10.50;;;666.40;2432.00;;;;;;5072623;28;20032;-63
2023/08/27 05:16:25;;;;;;;16.45;9.30;;;691.20;2432.00;;;;;;5072262;28;20017;-64
2023/08/27 05:18:51;;;;;;;13.32;8.35;;;691.70;2432.00;;;;;;5072480;28;20024;-65
2023/08/27 05:21:17;;;;;;;18.45;9.73;;;691.80;2406.40;;;;;;5072226;28;20031;-65
2023/08/27 05:23:42;;;;;;;14.32;9.43;;;717.20;2355.20;;;;;;5072424;28;20524;-65
2023/08/27 05:26:08;;;;;;;21.52;10.32;;;;;;;;;;5072157;28;20035;-66
2023/08/27 05:28:37;;;;;;;13.20;8.57;;;794.40;2048.00;;;;;;5072217;28;20057;-66
2023/08/27 05:31:03;;;;;;;14.65;8.90;;;;;;;;;;5071855;28;20071;-65
2023/08/27 05:33:29;;;;;;;18.55;9.88;;;845.60;1843.20;;;;;;5072150;28;20032;-65
2023/08/27 05:35:55;;;;;;;15.65;8.77;;;871.10;1766.40;;;;;;5071907;28;20032;-65
2023/08/27 05:38:20;;;;;;;13.93;9.30;;;921.70;1664.00;;;;;;5072090;28;20031;-66
2023/08/27 05:40:46;;;;;;;16.17;9.27;;;922.40;1612.80;;;;;;5071602;28;20032;-66
2023/08/27 05:43:12;;;;;;;13.25;8.73;;;947.40;1536.00;;;;;;5072014;28;20035;-65
2023/08/27 05:45:37;;;;;;;17.98;10.20;;;947.20;1536.00;;;;;;5071504;28;20486;-64
2023/08/27 05:48:03;;;;;;;17.60;8.80;;;973.20;1484.80;;;;;;5071661;28;20094;-64
2023/08/27 05:50:33;;;;;;;13.68;10.13;;;998.60;1459.20;;;;;;5071827;28;20395;-63
2023/08/27 05:52:59;;;;;;;15.30;9.80;;;1024.50;1408.00;;;;;;5072011;28;20371;-68
2023/08/27 05:55:24;;;;;;;13.70;11.30;;;1024.70;1408.00;;;;;;5071691;28;20029;-64
2023/08/27 05:57:50;;;;;;;15.38;9.80;;;;;;;;;;5071978;28;20036;-68
2023/08/27 06:00:16;;;;;;;16.88;13.07;;;;;;;;;;5071098;28;20078;-63
2023/08/27 06:02:43;;;;;;;15.52;11.60;;;;;;;;;;5071160;28;20024;-64
2023/08/27 06:05:09;;;;;;;14.15;11.32;;;;;;;;;;5071708;28;20052;-63
2023/08/27 06:07:35;;;;;;;14.95;10.40;;;;;;;;;;5071261;28;20059;-63
2023/08/27 06:10:01;;;;;;;13.15;10.90;;;;;;;;;;5071121;28;20012;-66
2023/08/27 06:12:27;;;;;;;19.38;11.18;;;;;;;;;;5071045;28;20102;-63
2023/08/27 06:14:54;;;;;;;13.30;11.40;;;;;;;;;;5070256;28;20032;-63
2023/08/27 06:17:19;;;;;;;20.52;12.05;;;1050.20;1356.80;;;;;;5071158;28;20048;-65
2023/08/27 06:19:45;;;;;;;15.95;11.25;;;1050.20;1356.80;;;;;;5070908;28;20051;-67
2023/08/27 06:22:11;;;;;;;15.82;12.05;;;1100.90;1305.60;;;;;;5071519;28;20474;-67
2023/08/27 06:24:36;;;;;;;15.00;11.48;;;1126.40;1280.00;;;;;;5070820;28;20028;-67
2023/08/27 06:27:02;;;;;;;18.23;11.68;;;1101.20;1254.40;;;;;;5071237;28;20036;-68
2023/08/27 06:29:28;;;;;;;15.60;11.73;;;1101.70;1228.80;;;;;;5071277;28;20027;-68
2023/08/27 06:31:53;;;;;;;20.98;12.35;;;1101.70;1228.80;;;;;;5070795;28;20059;-65
2023/08/27 06:34:19;;;;;;;18.85;12.68;;;1126.40;1254.40;;;;;;5071007;28;20066;-66
2023/08/27 06:36:45;;;;;;;17.45;14.25;;;1126.80;1254.40;;;;;;5070787;28;20450;-69
2023/08/27 06:39:10;;;;;;;14.85;13.10;;;1126.90;1228.80;;;;;;5070762;28;20024;-69
2023/08/27 06:41:36;;;;;;;14.68;12.88;;;1152.00;1203.20;;;;;;5070529;28;20055;-68
2023/08/27 06:44:02;;;;;;;18.95;13.48;;;1126.90;1228.80;;;;;;5070954;28;20031;-70
2023/08/27 06:46:28;;;;;;;16.13;12.07;;;1101.70;1228.80;;;;;;5070757;28;20111;-69
2023/08/27 06:48:54;;;;;;;15.43;13.77;;;1126.50;1254.40;;;;;;5070477;28;20043;-70
2023/08/27 06:51:19;;;;;;;19.02;13.32;;;1126.80;1228.80;;;;;;5070663;28;20081;-72
2023/08/27 06:53:45;;;;;;;21.65;13.07;;;1178.30;1126.40;;;;;;5070767;28;20020;-68
2023/08/27 06:56:11;;;;;;;15.20;11.68;;;1177.60;1177.60;;;;;;5070896;28;20065;-70
2023/08/27 06:58:37;;;;;;;13.75;12.35;;;;;;;;;;5070237;28;20025;-68
2023/08/27 07:01:04;;;;;;;15.25;13.57;;;;;;;;;;5070104;28;20032;-67
2023/08/27 07:03:31;;;;;;;15.82;13.07;;;1203.90;1100.80;;;;;;5070133;28;20062;-67
2023/08/27 07:05:57;;;;;;;15.40;13.60;;;1229.00;1100.80;;;;;;5070348;28;20474;-68
2023/08/27 07:08:24;;;;;;;15.68;13.98;;;;;;;;;;5070093;28;20029;-70
2023/08/27 07:10:50;;;;;;;22.75;14.85;;;;;;;;;;5070330;28;20106;-71
2023/08/27 07:13:16;;;;;;;19.08;14.93;;;;;;;;;;5069742;28;20053;-67
2023/08/27 07:15:42;;;;;;;21.35;14.20;;;;;;;;;;5070141;28;20035;-66
2023/08/27 07:18:08;;;;;;;17.15;14.98;;;;;;;;;;5070222;28;20040;-68
2023/08/27 07:20:34;;;;;;;19.75;14.52;;;;;;;;;;5056811;28;20020;-66
2023/08/27 07:23:01;;;;;;;19.38;14.60;;;;;;;;;;5069852;28;20047;-66
2023/08/27 07:25:27;;;;;;;18.58;16.65;;;;;;;;;;5069158;28;20032;-68
2023/08/27 07:27:53;;;;;;;22.45;17.33;;;;;;;;;;5069395;28;20028;-66
2023/08/27 07:30:19;;;;;;;16.40;14.70;;;;;;;;;;5069890;28;20020;-67
2023/08/27 07:32:45;;;;;;;20.48;16.50;;;;;;;;;;5069590;28;20059;-67
2023/08/27 07:35:11;;;;;;;18.75;16.20;;;;;;;;;;5069794;28;20463;-67
2023/08/27 07:37:37;;;;;;;18.88;15.70;;;;;;;;;;5069345;28;20025;-67
2023/08/27 07:40:04;;;;;;;21.33;15.93;;;;;;;;;;5069559;28;20025;-65
2023/08/27 07:42:30;;;;;;;19.48;15.00;;;;;;;;;;5069364;28;20024;-66
2023/08/27 07:44:56;;;;;;;19.13;17.15;;;;;;;;;;5069337;28;20033;-71
2023/08/27 07:47:22;;;;;;;23.00;17.05;;;;;;;;;;5069300;28;20491;-67
2023/08/27 07:49:48;;;;;;;23.02;16.70;;;;;;;;;;5069965;28;20024;-71
2023/08/27 07:52:14;;;;;;;19.90;18.05;;;;;;;;;;5069383;28;20024;-71
2023/08/27 07:54:40;;;;;;;19.27;17.33;;;;;;;;;;5069754;28;20032;-71
2023/08/27 07:57:06;;;;;;;25.27;18.83;;;;;;;;;;5068898;28;20466;-69
2023/08/27 07:59:32;;;;;;;19.95;17.92;;;;;;;;;;5069162;28;20467;-67
2023/08/27 08:01:58;;;;;;;20.80;18.88;;;;;;;;;;5069523;28;20020;-66
2023/08/27 08:04:25;;;;;;;18.60;16.90;;;;;;;;;;5069193;28;20028;-66
2023/08/27 08:06:50;;;;;;;21.45;17.30;;;1228.80;1126.40;;;;;;5069086;28;20033;-69
2023/08/27 08:09:16;;;;;;;22.90;18.73;;;1228.80;1126.40;;;;;;5069462;28;20032;-66
2023/08/27 08:11:42;;;;;;;20.50;17.00;;;1254.80;1100.80;;;;;;5068936;28;20048;-68
2023/08/27 08:14:08;;;;;;;18.80;16.70;;;1254.60;1100.80;;;;;;5069314;28;20032;-68
2023/08/27 08:16:33;;;;;;;19.95;17.77;;;1280.40;1049.60;;;;;;5068941;28;20028;-67
2023/08/27 08:18:59;;;;;;;21.42;18.80;;;1280.50;1024.00;;;;;;5069371;28;20527;-69
2023/08/27 08:21:25;;;;;;;20.45;18.42;;;1280.50;1049.60;;;;;;5068935;28;20027;-67
2023/08/27 08:23:50;;;;;;;19.02;17.05;;;1254.80;1075.20;;;;;;5069229;28;20063;-69
2023/08/27 08:26:16;;;;;;;24.98;17.38;;;1254.40;1100.80;;;;;;5068684;28;20478;-67
2023/08/27 08:28:42;;;;;;;20.40;18.65;;;1229.30;1075.20;;;;;;5068904;28;20143;-67
2023/08/27 08:31:07;;;;;;;20.10;18.02;;;1254.60;1075.20;;;;;;5068742;28;20023;-69
2023/08/27 08:33:33;;;;;;;20.95;18.70;;;1178.50;1075.20;;;;;;5069085;28;20024;-68
2023/08/27 08:35:59;;;;;;;20.80;18.73;;;1203.80;1075.20;;;;;;5069290;28;20437;-68
2023/08/27 08:38:25;;;;;;;21.15;19.02;;;1229.30;1075.20;;;;;;5068477;28;20040;-69
2023/08/27 08:40:58;;;;;;;23.45;20.95;;;1254.80;1100.80;;;;;;5068673;28;20115;-69
2023/08/27 08:43:32;;;;;;;21.95;19.80;;;1229.30;1075.20;;;;;;5067757;28;20090;-68
2023/08/27 08:46:06;;;;;;;20.83;18.92;;;1203.90;1049.60;;;;;;5067028;28;20056;-67
2023/08/27 08:48:38;;;;;;;19.42;16.48;;;1127.30;1177.60;;;;;;5067433;28;20082;-65
2023/08/27 08:51:05;;;;;;;20.50;14.98;;;;;;;;;;5067488;28;20036;-65
2023/08/27 08:53:33;;;;;;;19.52;15.30;;;;;;;;;;5067513;28;20012;-66
2023/08/27 08:56:03;;;;;;;20.80;15.43;;;;;;;;;;5067259;28;20436;-68
2023/08/27 08:58:33;;;;;;;19.17;15.38;;;1024.00;1331.20;;;;;;5066728;28;20031;-68
2023/08/27 09:01:00;;;;;;;17.70;13.68;;;998.70;1356.80;;;;;;5067220;28;20029;-67
2023/08/27 09:03:27;;;;;;;26.35;13.85;;;998.60;1356.80;;;;;;5066890;28;20430;-68
2023/08/27 09:05:54;;;;;;;22.92;14.85;;;973.70;1356.80;;;;;;5067121;28;20028;-67
2023/08/27 09:08:20;;;;;;;18.20;13.07;;;;;;;;;;5067159;28;20025;-65
2023/08/27 09:10:49;;;;;;;20.42;13.20;;;948.10;1433.60;;;;;;5066431;28;20097;-65
2023/08/27 09:13:19;;;;;;;20.10;13.48;;;948.10;1433.60;;;;;;5066711;28;20110;-64
2023/08/27 09:15:45;;;;;;;16.27;12.50;;;948.10;1433.60;;;;;;5066680;28;20416;-66
2023/08/27 09:18:11;;;;;;;15.35;12.77;;;948.00;1459.20;;;;;;5067039;28;20020;-66
2023/08/27 09:20:37;;;;;;;20.50;14.40;;;948.10;1459.20;;;;;;5061275;28;20052;-66
2023/08/27 09:23:04;;;;;;;15.98;12.77;;;947.40;1459.20;;;;;;5046446;28;20067;-67
2023/08/27 09:25:29;;;;;;;17.00;12.77;;;947.40;1484.80;;;;;;5046845;28;20025;-67
2023/08/27 09:27:55;;;;;;;18.42;13.88;;;947.80;1459.20;;;;;;5047074;28;20040;-67
2023/08/27 09:30:22;;;;;;;20.05;13.50;;;947.90;1459.20;;;;;;5046786;28;20020;-68
2023/08/27 09:32:48;;;;;;;22.70;13.00;;;972.80;1484.80;;;;;;5061690;28;20037;-65
2023/08/27 09:35:14;;;;;;;17.52;13.20;;;947.90;1459.20;;;;;;5066471;28;20020;-67
2023/08/27 09:37:43;;;;;;;21.55;12.55;;;947.80;1459.20;;;;;;5066624;28;20029;-65
2023/08/27 09:40:10;;;;;;;16.83;12.30;;;948.10;1459.20;;;;;;5067017;28;20441;-70
2023/08/27 09:42:37;;;;;;;16.80;12.27;;;948.10;1433.60;;;;;;5060470;28;20071;-65
2023/08/27 09:45:04;;;;;;;20.23;12.23;;;973.00;1459.20;;;;;;5056526;28;20675;-65
2023/08/27 09:47:33;;;;;;;21.30;12.68;;;972.80;1459.20;;;;;;5066826;28;20052;-66
2023/08/27 09:50:03;;;;;;;19.92;12.55;;;947.90;1433.60;;;;;;5069062;28;20025;-64
2023/08/27 09:52:29;;;;;;;17.40;12.85;;;947.40;1459.20;;;;;;5070361;28;20020;-64
2023/08/27 09:54:55;;;;;;;20.23;11.30;;;922.40;1459.20;;;;;;5070159;28;20050;-64
2023/08/27 09:57:21;;;;;;;17.63;11.50;;;947.20;1459.20;;;;;;5070099;28;20024;-69
2023/08/27 09:59:48;;;;;;;24.73;11.25;;;922.50;1459.20;;;;;;5070074;28;20024;-65
2023/08/27 10:02:15;;;;;;;15.32;10.48;;;922.40;1459.20;;;;;;5069834;28;20017;-67
2023/08/27 10:04:54;;;;;;;12.98;10.80;;;922.50;1459.20;;;;;;5070047;28;20414;-67
2023/08/27 10:07:20;;;;;;;20.65;11.35;;;922.50;1459.20;;;;;;5070016;28;20526;-65
2023/08/27 10:09:50;;;;;;;16.52;10.90;;;922.10;1459.20;;;;;;5069659;28;20078;-65
2023/08/27 10:12:17;;;;;;;16.40;10.57;;;947.20;1433.60;;;;;;5068624;28;20040;-65
2023/08/27 10:14:44;;;;;;;16.35;10.25;;;947.50;1433.60;;;;;;5069642;28;20478;-65
2023/08/27 10:17:11;;;;;;;19.30;13.07;;;947.40;1433.60;;;;;;5069560;28;20028;-66
2023/08/27 10:19:37;;;;;;;20.50;12.52;;;947.40;1433.60;;;;;;5069834;28;20079;-64
2023/08/27 10:22:04;;;;;;;15.02;10.80;;;922.50;1433.60;;;;;;5069955;28;20070;-66
2023/08/27 10:24:31;;;;;;;21.10;11.30;;;947.20;1433.60;;;;;;5069818;28;20103;-66
2023/08/27 10:26:58;;;;;;;19.00;10.35;;;922.30;1408.00;;;;;;5069541;28;20044;-66
2023/08/27 10:29:24;;;;;;;15.95;11.15;;;;;;;;;;5069197;28;20368;-65
2023/08/27 10:31:51;;;;;;;20.25;10.95;;;;;;;;;;5069377;28;20036;-66
2023/08/27 10:34:18;;;;;;;16.23;9.35;;;922.30;1408.00;;;;;;5069787;28;20016;-67
2023/08/27 10:36:45;;;;;;;15.70;11.30;;;922.20;1433.60;;;;;;5069421;28;20024;-66
2023/08/27 10:39:12;;;;;;;18.77;11.32;;;922.00;1433.60;;;;;;5070039;28;20107;-66
2023/08/27 10:41:38;;;;;;;21.40;10.88;;;922.00;1433.60;;;;;;5069137;28;20025;-67
2023/08/27 10:44:05;;;;;;;21.58;10.35;;;922.00;1433.60;;;;;;5069260;28;20420;-65
2023/08/27 10:46:31;;;;;;;13.77;9.90;;;922.00;1433.60;;;;;;5068978;28;20123;-64
2023/08/27 10:48:56;;;;;;;19.52;11.13;;;922.00;1433.60;;;;;;5048922;28;20116;-64
2023/08/27 10:51:32;;;;;;;16.85;10.55;;;921.70;1433.60;;;;;;5051930;28;20021;-64
2023/08/27 10:54:00;;;;;;;20.65;11.10;;;921.70;1484.80;;;;;;5069472;28;20028;-65
2023/08/27 10:56:39;;;;;;;16.08;10.93;;;921.70;1459.20;;;;;;5055001;28;20104;-66
2023/08/27 10:59:25;;;;;;;20.38;9.95;;;922.00;1459.20;;;;;;5068503;28;20082;-66
2023/08/27 11:01:54;;;;;;;18.02;10.65;;;922.00;1459.20;;;;;;5077477;28;20028;-67
2023/08/27 11:04:19;;;;;;;14.23;9.60;;;922.00;1484.80;;;;;;5072205;28;20013;-67
2023/08/27 11:06:48;;;;;;;14.07;9.70;;;922.00;1459.20;;;;;;5068661;28;20044;-67
2023/08/27 11:09:27;;;;;;;15.73;9.63;;;922.30;1433.60;;;;;;5068275;28;20032;-66
2023/08/27 11:11:55;;;;;;;15.73;9.90;;;922.30;1433.60;;;;;;5054838;28;20521;-66
2023/08/27 11:14:22;;;;;;;24.00;10.43;;;922.10;1433.60;;;;;;5054813;28;20769;-68
2023/08/27 11:16:53;;;;;;;15.02;10.05;;;922.00;1433.60;;;;;;5059251;28;20386;-66
2023/08/27 11:19:27;;;;;;;18.15;11.20;;;922.10;1459.20;;;;;;5056593;28;20021;-65
2023/08/27 11:22:03;;;;;;;21.67;11.38;;;922.00;1459.20;;;;;;5054156;28;20028;-66
2023/08/27 11:24:29;;;;;;;12.50;10.07;;;921.90;1459.20;;;;;;5058334;28;20367;-66
2023/08/27 11:26:54;;;;;;;11.85;10.40;;;922.10;1459.20;;;;;;5054424;28;20044;-64
2023/08/27 11:29:23;;;;;;;17.33;10.88;;;922.00;1484.80;;;;;;5053769;28;20024;-67
2023/08/27 11:31:49;;;;;;;14.15;9.60;;;922.00;1484.80;;;;;;5056876;28;20025;-66
2023/08/27 11:34:15;;;;;;;11.60;9.40;;;922.00;1459.20;;;;;;5058947;28;20382;-65
2023/08/27 11:36:48;;;;;;;20.05;11.27;;;922.40;1459.20;;;;;;5053269;28;20037;-64
2023/08/27 11:39:15;;;;;;;15.25;10.73;;;922.40;1459.20;;;;;;5054496;28;20024;-67
2023/08/27 11:41:46;;;;;;;18.17;10.75;;;922.30;1459.20;;;;;;5057582;28;20399;-67
2023/08/27 11:44:13;;;;;;;14.02;10.05;;;922.50;1459.20;;;;;;5060889;28;20020;-67
2023/08/27 11:46:41;;;;;;;13.30;10.23;;;922.40;1459.20;;;;;;5055464;28;20045;-66
2023/08/27 11:49:13;;;;;;;15.85;10.27;;;922.40;1459.20;;;;;;5056259;28;20025;-67
2023/08/27 11:51:42;;;;;;;18.05;9.77;;;922.40;1459.20;;;;;;5055026;28;20111;-66
2023/08/27 11:54:10;;;;;;;15.20;10.00;;;922.30;1433.60;;;;;;5056565;28;20100;-66
2023/08/27 11:56:36;;;;;;;20.48;9.82;;;922.30;1433.60;;;;;;5033839;28;20036;-67
2023/08/27 11:59:04;;;;;;;15.13;9.20;;;922.50;1433.60;;;;;;5055161;28;20086;-66
2023/08/27 12:01:30;;;;;;;14.07;9.68;;;922.50;1382.40;;;;;;5058536;28;20028;-66
2023/08/27 12:03:56;;;;;;;18.65;10.45;;;922.50;1408.00;;;;;;5057455;28;20051;-66
2023/08/27 12:06:30;;;;;;;12.93;8.93;;;947.20;1382.40;;;;;;5056583;28;20029;-67
2023/08/27 12:08:57;;;;;;;11.98;8.55;;;947.20;1382.40;;;;;;5058760;28;20107;-66
2023/08/27 12:11:27;;;;;;;14.55;9.13;;;947.30;1331.20;;;;;;5055832;28;20055;-67
2023/08/27 12:14:00;;;;;;;16.13;8.73;;;947.20;1331.20;;;;;;5052328;28;20033;-65